Time;durP1;ratioP1;P1;durP2;ratioP2;P2;SDS_P1;SDS_P2;PMS_P1;PMS_P2;Temp;Humidity;BMP_temperature;BMP_pressure;BME280_temperature;BME280_humidity;BME280_pressure;Samples;Min_cycle;Max_cycle;Signal;HPM_P1;HPM_P2
2021/07/13 00:00:52;;;;;;;32.23;12.83;;;18.40;99.90;;;;;;5013551;28;20194;-89
2021/07/13 00:03:18;;;;;;;35.93;14.07;;;18.40;99.90;;;;;;5039804;28;20226;-90
2021/07/13 00:05:44;;;;;;;44.67;16.23;;;18.30;99.90;;;;;;4996911;28;20221;-90
2021/07/13 00:08:10;;;;;;;40.97;15.27;;;18.40;99.90;;;;;;4997176;28;20245;-89
2021/07/13 00:10:39;;;;;;;41.67;16.07;;;18.40;99.90;;;;;;4996565;28;20247;-90
2021/07/13 00:13:05;;;;;;;39.60;13.80;;;18.40;99.90;;;;;;5021450;28;20191;-90
2021/07/13 00:15:35;;;;;;;51.40;17.13;;;18.40;99.90;;;;;;5021946;28;21347;-90
2021/07/13 00:18:01;;;;;;;47.93;14.97;;;18.40;99.90;;;;;;5022364;28;20218;-89
2021/07/13 00:20:28;;;;;;;41.30;14.23;;;18.40;99.90;;;;;;4996521;28;20214;-90
2021/07/13 00:22:55;;;;;;;29.87;14.33;;;18.30;99.90;;;;;;5012670;28;20263;-90
2021/07/13 00:25:21;;;;;;;44.93;12.80;;;18.30;99.90;;;;;;5021573;28;20255;-89
2021/07/13 00:27:47;;;;;;;32.77;12.87;;;18.30;99.90;;;;;;5023496;28;20194;-90
2021/07/13 00:30:16;;;;;;;36.80;12.63;;;18.30;99.90;;;;;;5019794;28;20554;-90
2021/07/13 00:32:42;;;;;;;30.27;12.40;;;18.30;99.90;;;;;;5022106;28;20218;-90
2021/07/13 00:35:09;;;;;;;37.63;13.23;;;18.30;99.90;;;;;;5020799;28;20227;-90
2021/07/13 00:37:35;;;;;;;34.60;13.83;;;18.20;99.90;;;;;;5020970;28;20667;-89
2021/07/13 00:40:01;;;;;;;37.30;12.90;;;18.30;99.90;;;;;;5038138;28;20186;-91
2021/07/13 00:42:27;;;;;;;37.07;14.43;;;18.20;99.90;;;;;;5021211;28;20218;-89
2021/07/13 00:44:53;;;;;;;35.17;13.50;;;18.20;99.90;;;;;;5021114;28;20688;-90
2021/07/13 00:47:20;;;;;;;33.33;15.10;;;18.30;99.90;;;;;;4995836;28;20588;-91
2021/07/13 00:49:47;;;;;;;32.70;14.13;;;18.20;99.90;;;;;;5020943;28;20210;-89
2021/07/13 00:52:14;;;;;;;20.70;9.73;;;18.20;99.90;;;;;;5013036;28;20289;-91
2021/07/13 00:54:41;;;;;;;36.77;12.03;;;18.20;99.90;;;;;;4997197;28;20697;-92
2021/07/13 00:57:09;;;;;;;22.53;12.83;;;18.20;99.90;;;;;;5004878;28;20616;-89
2021/07/13 00:59:36;;;;;;;32.77;12.73;;;18.20;99.90;;;;;;5011282;28;20226;-89
2021/07/13 01:02:02;;;;;;;32.87;12.20;;;18.20;99.90;;;;;;5011754;28;20234;-89
2021/07/13 01:04:28;;;;;;;27.13;11.70;;;18.10;99.90;;;;;;4995834;28;20736;-89
2021/07/13 01:07:02;;;;;;;23.20;9.27;;;18.10;99.90;;;;;;5013069;28;20620;-89
2021/07/13 01:09:43;;;;;;;28.97;12.23;;;18.10;99.90;;;;;;5019328;28;20211;-89
2021/07/13 01:12:12;;;;;;;24.37;12.23;;;18.10;99.90;;;;;;5021081;28;20694;-92
2021/07/13 01:14:49;;;;;;;34.50;12.93;;;18.10;99.90;;;;;;5020699;28;20253;-92
2021/07/13 01:17:31;;;;;;;53.23;14.63;;;18.10;99.90;;;;;;5019888;28;20325;-91
2021/07/13 01:20:27;;;;;;;35.43;14.77;;;18.10;99.90;;;;;;5021437;28;20222;-91
2021/07/13 01:23:17;;;;;;;37.37;16.70;;;18.10;99.90;;;;;;5019120;28;20233;-91
2021/07/13 01:26:07;;;;;;;39.63;15.93;;;18.10;99.90;;;;;;5021705;28;20230;-90
2021/07/13 01:28:39;;;;;;;47.60;14.23;;;18.20;99.90;;;;;;5036204;28;20699;-92
2021/07/13 01:31:11;;;;;;;34.97;12.63;;;18.10;99.90;;;;;;5036406;28;20888;-92
2021/07/13 01:33:38;;;;;;;31.23;13.33;;;18.10;99.90;;;;;;5019036;28;20179;-91
2021/07/13 01:36:23;;;;;;;41.43;15.10;;;18.10;99.90;;;;;;4995284;28;20228;-92
2021/07/13 01:38:52;;;;;;;41.13;14.03;;;18.10;99.90;;;;;;5017633;28;20297;-91
2021/07/13 01:41:22;;;;;;;32.43;14.17;;;18.10;99.90;;;;;;5018698;28;20224;-91
2021/07/13 01:43:49;;;;;;;35.37;13.80;;;18.10;99.90;;;;;;5020536;28;20580;-91
2021/07/13 01:46:17;;;;;;;31.47;13.97;;;18.00;99.90;;;;;;5019868;28;20665;-91
2021/07/13 01:48:45;;;;;;;36.97;13.13;;;18.00;99.90;;;;;;5012404;28;20183;-92
2021/07/13 01:51:12;;;;;;;26.77;13.47;;;18.00;99.90;;;;;;5020186;28;20233;-92
2021/07/13 01:53:39;;;;;;;36.17;13.77;;;18.00;99.90;;;;;;5011433;28;20834;-92
2021/07/13 01:56:07;;;;;;;28.60;12.47;;;18.10;99.90;;;;;;5036400;28;20226;-92
2021/07/13 01:58:33;;;;;;;28.20;12.87;;;18.00;99.90;;;;;;5020586;28;20257;-91
2021/07/13 02:01:08;;;;;;;35.50;11.47;;;18.00;99.90;;;;;;4995745;28;20268;-93
2021/07/13 02:03:35;;;;;;;29.70;13.53;;;18.00;99.90;;;;;;5020654;28;20810;-91
2021/07/13 02:06:02;;;;;;;28.03;12.97;;;18.00;99.90;;;;;;5019009;28;20220;-90
2021/07/13 02:08:28;;;;;;;28.67;14.70;;;18.00;99.90;;;;;;5011434;28;20203;-92
2021/07/13 02:10:54;;;;;;;30.10;13.53;;;18.00;99.90;;;;;;5011361;28;20610;-90
2021/07/13 02:13:20;;;;;;;42.80;14.73;;;18.00;99.90;;;;;;5010399;28;21405;-91
2021/07/13 02:15:47;;;;;;;28.23;14.93;;;18.00;99.90;;;;;;5021571;28;20709;-91
2021/07/13 02:18:13;;;;;;;38.73;14.93;;;18.00;99.90;;;;;;5012249;28;20600;-91
2021/07/13 02:20:39;;;;;;;34.03;16.77;;;18.00;99.90;;;;;;5018781;28;20728;-91
2021/07/13 02:23:06;;;;;;;37.23;16.17;;;18.00;99.90;;;;;;4987171;28;20229;-91
2021/07/13 02:25:33;;;;;;;42.37;14.97;;;18.10;99.90;;;;;;5013900;28;20715;-90
2021/07/13 02:28:21;;;;;;;38.03;14.87;;;18.00;99.90;;;;;;4989741;28;20205;-91
2021/07/13 02:30:51;;;;;;;42.67;14.87;;;18.10;99.90;;;;;;4997563;28;20224;-90
2021/07/13 02:33:23;;;;;;;35.73;16.03;;;18.10;99.90;;;;;;4996230;28;21430;-91
2021/07/13 02:35:54;;;;;;;49.20;17.53;;;18.10;99.90;;;;;;4996212;28;20219;-90
2021/07/13 02:38:20;;;;;;;46.03;19.60;;;18.10;99.90;;;;;;4996518;28;20219;-90
2021/07/13 02:40:49;;;;;;;40.83;19.80;;;18.10;99.90;;;;;;4988145;28;20251;-90
2021/07/13 02:43:15;;;;;;;37.03;15.13;;;18.10;99.90;;;;;;4996424;28;20215;-90
2021/07/13 02:45:44;;;;;;;41.17;15.93;;;18.10;99.90;;;;;;4972012;28;20195;-90
2021/07/13 02:48:12;;;;;;;39.60;15.27;;;18.10;99.90;;;;;;5013091;28;20586;-90
2021/07/13 02:50:40;;;;;;;47.03;16.73;;;18.10;99.90;;;;;;5001500;28;20750;-90
2021/07/13 02:53:08;;;;;;;30.63;14.20;;;18.20;99.90;;;;;;4999466;28;20219;-91
2021/07/13 02:55:35;;;;;;;40.20;18.67;;;18.10;99.90;;;;;;5002266;28;20285;-91
2021/07/13 02:58:02;;;;;;;40.97;15.67;;;18.10;99.90;;;;;;4999844;28;20552;-91
2021/07/13 03:00:29;;;;;;;29.13;15.27;;;18.10;99.90;;;;;;4975183;28;20204;-91
2021/07/13 03:02:55;;;;;;;40.67;16.80;;;18.10;99.90;;;;;;4991850;28;20284;-91
2021/07/13 03:05:23;;;;;;;32.00;14.27;;;18.00;99.90;;;;;;4998500;28;20244;-91
2021/07/13 03:07:50;;;;;;;36.83;15.23;;;18.00;99.90;;;;;;4999685;28;20277;-91
2021/07/13 03:10:21;;;;;;;27.90;15.03;;;18.10;99.90;;;;;;4991818;28;20218;-91
2021/07/13 03:12:49;;;;;;;40.67;13.53;;;18.00;99.90;;;;;;4998897;28;20184;-92
2021/07/13 03:15:17;;;;;;;30.93;12.77;;;18.00;99.90;;;;;;4984325;28;20228;-91
2021/07/13 03:17:43;;;;;;;32.97;13.13;;;18.00;99.90;;;;;;4991629;28;20307;-93
2021/07/13 03:20:09;;;;;;;40.10;12.17;;;18.00;99.90;;;;;;4975324;28;20758;-91
2021/07/13 03:22:39;;;;;;;27.53;11.80;;;18.00;99.90;;;;;;4991064;28;20255;-91
2021/07/13 03:25:07;;;;;;;29.33;11.20;;;18.00;99.90;;;;;;5014147;28;20738;-88
2021/07/13 03:27:34;;;;;;;27.87;12.23;;;18.00;99.90;;;;;;4995354;28;20606;-91
2021/07/13 03:30:01;;;;;;;54.97;14.20;;;18.00;99.90;;;;;;5019112;28;20214;-91
2021/07/13 03:32:28;;;;;;;30.47;13.70;;;18.00;99.90;;;;;;5020367;28;20306;-91
2021/07/13 03:34:54;;;;;;;33.53;14.50;;;18.00;99.90;;;;;;4988141;28;20224;-91
2021/07/13 03:37:21;;;;;;;26.97;11.57;;;18.00;99.90;;;;;;5002370;28;20205;-90
2021/07/13 03:39:48;;;;;;;33.83;15.57;;;18.00;99.90;;;;;;4994432;28;20191;-91
2021/07/13 03:42:14;;;;;;;36.63;14.60;;;18.00;99.90;;;;;;5011330;28;20226;-92
2021/07/13 03:44:41;;;;;;;30.57;13.30;;;18.00;99.90;;;;;;4993961;28;20237;-91
2021/07/13 03:47:14;;;;;;;33.37;12.97;;;18.00;99.90;;;;;;5010674;28;20214;-91
2021/07/13 03:49:41;;;;;;;34.77;13.23;;;18.00;99.90;;;;;;5018580;28;20295;-91
2021/07/13 03:52:08;;;;;;;34.00;14.47;;;18.00;99.90;;;;;;5020393;28;20602;-91
2021/07/13 03:54:33;;;;;;;36.13;14.10;;;18.10;99.90;;;;;;5021282;28;20180;-91
2021/07/13 03:57:00;;;;;;;40.17;16.60;;;18.10;99.90;;;;;;5017877;28;20215;-93
2021/07/13 03:59:25;;;;;;;40.47;16.47;;;18.00;99.90;;;;;;5010038;28;20307;-91
2021/07/13 04:01:51;;;;;;;40.07;17.23;;;18.00;99.90;;;;;;5009639;28;20314;-91
2021/07/13 04:04:17;;;;;;;43.57;17.70;;;18.00;99.90;;;;;;4994712;28;20659;-90
2021/07/13 04:06:43;;;;;;;50.90;18.67;;;18.00;99.90;;;;;;5020093;28;20201;-91
2021/07/13 04:09:09;;;;;;;38.63;19.30;;;18.10;99.90;;;;;;5010588;28;20226;-91
2021/07/13 04:11:35;;;;;;;32.77;15.90;;;18.10;99.90;;;;;;5018196;28;20305;-92
2021/07/13 04:14:04;;;;;;;47.80;17.50;;;18.00;99.90;;;;;;5002801;28;20211;-91
2021/07/13 04:16:30;;;;;;;40.33;18.20;;;18.00;99.90;;;;;;5010224;28;20223;-90
2021/07/13 04:18:56;;;;;;;46.27;18.27;;;18.00;99.90;;;;;;5011426;28;20567;-91
2021/07/13 04:21:22;;;;;;;36.97;15.43;;;18.10;99.90;;;;;;5010471;28;20215;-92
2021/07/13 04:23:48;;;;;;;38.40;15.47;;;18.00;99.90;;;;;;5005157;28;20693;-90
2021/07/13 04:26:13;;;;;;;39.77;15.27;;;18.00;99.90;;;;;;5009313;28;20517;-90
2021/07/13 04:28:39;;;;;;;34.77;15.67;;;18.00;99.90;;;;;;5010241;28;20219;-92
2021/07/13 04:31:05;;;;;;;36.57;16.67;;;18.00;99.90;;;;;;5018564;28;20233;-91
2021/07/13 04:33:33;;;;;;;46.60;17.90;;;18.00;99.90;;;;;;4992241;28;20221;-92
2021/07/13 04:35:59;;;;;;;35.97;17.47;;;18.10;99.90;;;;;;5019137;28;20237;-90
2021/07/13 04:38:25;;;;;;;45.97;17.87;;;18.10;99.90;;;;;;5009930;28;20223;-90
2021/07/13 04:40:51;;;;;;;46.80;19.37;;;18.10;99.90;;;;;;4994209;28;21083;-90
2021/07/13 04:43:17;;;;;;;42.27;15.70;;;18.20;99.90;;;;;;4993185;28;20210;-90
2021/07/13 04:45:43;;;;;;;42.60;16.50;;;18.20;99.90;;;;;;5018146;28;20608;-88
2021/07/13 04:48:09;;;;;;;39.80;16.03;;;18.20;99.90;;;;;;4990691;28;20225;-93
2021/07/13 04:50:35;;;;;;;37.40;15.37;;;18.10;99.90;;;;;;5009530;28;20214;-89
2021/07/13 04:53:02;;;;;;;31.10;16.00;;;18.10;99.90;;;;;;5019734;28;20215;-91
2021/07/13 04:55:28;;;;;;;26.43;15.40;;;18.20;99.90;;;;;;5016018;28;20245;-92
2021/07/13 04:57:54;;;;;;;39.43;16.30;;;18.20;99.90;;;;;;5000324;28;20195;-92
2021/07/13 05:00:20;;;;;;;30.07;15.40;;;18.20;99.90;;;;;;4993099;28;20214;-91
2021/07/13 05:02:46;;;;;;;41.53;16.77;;;18.20;99.90;;;;;;5008617;28;20223;-92
2021/07/13 05:05:14;;;;;;;41.43;17.40;;;18.30;99.90;;;;;;4992484;28;20705;-91
2021/07/13 05:07:45;;;;;;;34.47;15.60;;;18.40;99.90;;;;;;5017547;28;20219;-91
2021/07/13 05:10:15;;;;;;;34.77;16.93;;;18.30;99.90;;;;;;5015719;28;20325;-91
2021/07/13 05:12:42;;;;;;;36.70;16.43;;;18.40;99.90;;;;;;5017882;28;20175;-91
2021/07/13 05:15:10;;;;;;;32.27;16.70;;;18.30;99.90;;;;;;5016342;28;20250;-94
2021/07/13 05:17:37;;;;;;;34.17;16.40;;;18.40;99.90;;;;;;4992842;28;20222;-92
2021/07/13 05:20:05;;;;;;;41.70;17.37;;;18.40;99.90;;;;;;4994185;28;20230;-94
2021/07/13 05:22:31;;;;;;;40.97;18.17;;;18.40;99.90;;;;;;5017500;28;20226;-92
2021/07/13 05:24:57;;;;;;;45.07;17.07;;;18.40;99.90;;;;;;5002335;28;20326;-91
2021/07/13 05:27:23;;;;;;;42.67;17.70;;;18.50;99.90;;;;;;5001369;28;20218;-90
2021/07/13 05:29:49;;;;;;;35.90;16.67;;;18.40;99.90;;;;;;4999135;28;20764;-90
2021/07/13 05:32:15;;;;;;;34.00;15.33;;;18.50;99.90;;;;;;4992421;28;20207;-93
2021/07/13 05:34:42;;;;;;;33.60;16.30;;;18.40;99.90;;;;;;5014742;28;20294;-90
2021/07/13 05:37:09;;;;;;;36.97;15.80;;;18.40;99.90;;;;;;4993070;28;20659;-90
2021/07/13 05:39:34;;;;;;;32.73;15.00;;;18.40;99.90;;;;;;5018647;28;20635;-90
2021/07/13 05:42:00;;;;;;;40.30;17.10;;;18.40;99.90;;;;;;4991636;28;20229;-90
2021/07/13 05:44:26;;;;;;;29.00;16.37;;;18.50;99.90;;;;;;5008471;28;20930;-89
2021/07/13 05:46:52;;;;;;;31.33;14.90;;;18.50;99.90;;;;;;5016540;28;20253;-91
2021/07/13 05:49:17;;;;;;;25.27;13.63;;;18.50;99.90;;;;;;4992437;28;20262;-91
2021/07/13 05:51:46;;;;;;;37.83;14.90;;;18.40;99.90;;;;;;5017963;28;20261;-90
2021/07/13 05:54:13;;;;;;;28.60;15.67;;;18.50;99.90;;;;;;5001724;28;20297;-95
2021/07/13 05:56:40;;;;;;;29.30;13.97;;;18.60;99.90;;;;;;5010519;28;20683;-93
2021/07/13 05:59:06;;;;;;;25.37;14.37;;;18.60;99.90;;;;;;5008094;28;20273;-91
2021/07/13 06:01:31;;;;;;;33.13;14.80;;;18.60;99.90;;;;;;4992127;28;20227;-91
2021/07/13 06:03:57;;;;;;;34.57;16.63;;;18.70;99.90;;;;;;5008364;28;20709;-89
2021/07/13 06:06:23;;;;;;;24.33;13.50;;;18.70;99.90;;;;;;5007522;28;20284;-89
2021/07/13 06:08:49;;;;;;;32.50;15.80;;;18.70;99.90;;;;;;4991270;28;20230;-87
2021/07/13 06:11:15;;;;;;;36.10;17.03;;;18.70;99.90;;;;;;5006985;28;20219;-87
2021/07/13 06:13:41;;;;;;;35.00;15.60;;;18.80;99.90;;;;;;5018841;28;20223;-90
2021/07/13 06:16:06;;;;;;;21.83;13.00;;;18.70;99.90;;;;;;5007541;28;20199;-90
2021/07/13 06:18:32;;;;;;;28.30;14.30;;;18.70;99.90;;;;;;5007952;28;20203;-89
2021/07/13 06:20:58;;;;;;;25.33;11.07;;;18.80;99.90;;;;;;4991358;28;20235;-89
2021/07/13 06:23:24;;;;;;;23.23;12.17;;;18.80;99.90;;;;;;4991984;28;20246;-90
2021/07/13 06:25:50;;;;;;;21.17;11.53;;;18.70;99.90;;;;;;5001054;28;20263;-90
2021/07/13 06:28:15;;;;;;;25.10;12.53;;;18.80;99.90;;;;;;5000381;28;20273;-90
2021/07/13 06:30:41;;;;;;;22.50;11.77;;;18.70;99.90;;;;;;5001384;28;20190;-91
2021/07/13 06:33:07;;;;;;;24.90;9.93;;;18.70;99.90;;;;;;5009272;28;20224;-86
2021/07/13 06:35:33;;;;;;;17.10;9.37;;;18.80;99.90;;;;;;5024047;28;20217;-88
2021/07/13 06:37:59;;;;;;;21.00;10.37;;;18.80;99.90;;;;;;5017719;28;20217;-89
2021/07/13 06:40:26;;;;;;;24.13;10.90;;;18.70;99.90;;;;;;5000415;28;20270;-88
2021/07/13 06:42:52;;;;;;;29.23;12.53;;;18.70;99.90;;;;;;5016667;28;20218;-88
2021/07/13 06:45:18;;;;;;;22.03;11.07;;;18.70;99.90;;;;;;5027082;28;20268;-89
2021/07/13 06:47:44;;;;;;;23.00;11.23;;;18.80;99.90;;;;;;5026021;28;20220;-89
2021/07/13 06:50:10;;;;;;;27.73;10.20;;;18.70;99.90;;;;;;5023931;28;20225;-90
2021/07/13 06:52:36;;;;;;;23.13;11.57;;;18.60;99.90;;;;;;5017099;28;20747;-90
2021/07/13 06:55:03;;;;;;;19.40;11.27;;;18.60;99.90;;;;;;5001345;28;20216;-91
2021/07/13 06:57:30;;;;;;;26.13;11.73;;;18.70;99.90;;;;;;5004016;28;20251;-89
2021/07/13 06:59:59;;;;;;;27.10;12.20;;;18.70;99.90;;;;;;5012180;28;20213;-89
2021/07/13 07:02:26;;;;;;;22.60;11.10;;;18.70;99.90;;;;;;5015382;28;20229;-89
2021/07/13 07:04:53;;;;;;;25.37;11.53;;;18.70;99.90;;;;;;5010614;28;20215;-89
2021/07/13 07:07:19;;;;;;;24.43;11.43;;;18.70;99.90;;;;;;5023879;28;20296;-90
2021/07/13 07:09:44;;;;;;;21.00;10.77;;;18.70;99.90;;;;;;5016652;28;20190;-91
2021/07/13 07:12:10;;;;;;;18.47;10.10;;;18.70;99.90;;;;;;4999920;28;20215;-90
2021/07/13 07:14:36;;;;;;;20.87;9.30;;;18.70;99.90;;;;;;5000576;28;20261;-92
2021/07/13 07:17:02;;;;;;;22.20;10.37;;;18.80;99.90;;;;;;5000665;28;20234;-91
2021/07/13 07:19:27;;;;;;;20.13;10.73;;;18.80;99.90;;;;;;5017162;28;20210;-90
2021/07/13 07:21:53;;;;;;;18.60;9.20;;;18.80;99.90;;;;;;5017847;28;20210;-92
2021/07/13 07:24:19;;;;;;;17.97;9.37;;;18.80;99.90;;;;;;4997853;28;20223;-90
2021/07/13 07:26:45;;;;;;;21.60;10.40;;;18.80;99.90;;;;;;4998093;28;20217;-92
2021/07/13 07:29:11;;;;;;;19.17;10.00;;;18.90;99.90;;;;;;5002791;28;20221;-90
2021/07/13 07:31:36;;;;;;;18.83;10.03;;;18.80;99.90;;;;;;5012111;28;20264;-90
2021/07/13 07:34:02;;;;;;;21.10;10.37;;;18.90;99.90;;;;;;4981506;28;20179;-90
2021/07/13 07:36:28;;;;;;;16.63;10.00;;;18.90;99.90;;;;;;5005953;28;20179;-91
2021/07/13 07:38:55;;;;;;;20.30;9.33;;;18.90;99.90;;;;;;5002831;28;20314;-92
2021/07/13 07:41:21;;;;;;;20.83;10.13;;;18.80;99.90;;;;;;5004451;28;20219;-91
2021/07/13 07:43:48;;;;;;;24.50;11.00;;;18.80;99.90;;;;;;5000411;28;20765;-91
2021/07/13 07:46:14;;;;;;;23.50;10.53;;;18.90;99.90;;;;;;5004670;28;20192;-90
2021/07/13 07:48:40;;;;;;;14.53;8.33;;;18.80;99.90;;;;;;5014305;28;20654;-91
2021/07/13 07:51:06;;;;;;;22.80;10.97;;;18.80;99.90;;;;;;4998136;28;20288;-90
2021/07/13 07:53:32;;;;;;;22.70;11.27;;;18.80;99.90;;;;;;5014052;28;20230;-90
2021/07/13 07:55:57;;;;;;;20.13;11.67;;;18.90;99.90;;;;;;4996344;28;20220;-91
2021/07/13 07:58:23;;;;;;;25.87;9.93;;;18.90;99.90;;;;;;4997610;28;20214;-90
2021/07/13 08:00:49;;;;;;;23.40;11.00;;;19.00;99.90;;;;;;5014400;28;20230;-91
2021/07/13 08:03:15;;;;;;;19.33;10.07;;;18.90;99.90;;;;;;5012830;28;20225;-90
2021/07/13 08:05:42;;;;;;;20.80;10.50;;;19.00;99.90;;;;;;4996767;28;20691;-91
2021/07/13 08:08:08;;;;;;;22.37;11.70;;;19.10;99.90;;;;;;5012699;28;20233;-92
2021/07/13 08:10:35;;;;;;;20.33;9.70;;;19.00;99.90;;;;;;5013932;28;20389;-91
2021/07/13 08:13:02;;;;;;;21.30;10.27;;;19.00;99.90;;;;;;5021186;28;20178;-91
2021/07/13 08:15:28;;;;;;;17.40;10.57;;;19.00;99.90;;;;;;5004372;28;20203;-91
2021/07/13 08:17:54;;;;;;;23.37;10.20;;;19.10;99.90;;;;;;5013426;28;20686;-91
2021/07/13 08:20:20;;;;;;;17.97;10.13;;;19.10;99.90;;;;;;5012879;28;20221;-89
2021/07/13 08:22:47;;;;;;;21.53;9.97;;;19.30;99.90;;;;;;5022423;28;20233;-91
2021/07/13 08:25:15;;;;;;;14.67;9.50;;;19.20;99.90;;;;;;5013263;28;20248;-90
2021/07/13 08:27:41;;;;;;;15.97;9.53;;;19.20;99.90;;;;;;5012486;28;20194;-90
2021/07/13 08:30:07;;;;;;;15.17;10.03;;;19.20;99.90;;;;;;5019645;28;20570;-90
2021/07/13 08:32:33;;;;;;;15.27;8.77;;;19.20;99.90;;;;;;4995487;28;20263;-90
2021/07/13 08:34:59;;;;;;;15.43;9.80;;;19.30;99.90;;;;;;5019097;28;20211;-91
2021/07/13 08:37:27;;;;;;;18.47;9.40;;;19.30;99.90;;;;;;5022867;28;20225;-90
2021/07/13 08:39:52;;;;;;;17.77;9.10;;;19.30;99.90;;;;;;5013962;28;20186;-91
2021/07/13 08:42:18;;;;;;;16.07;9.10;;;19.30;99.90;;;;;;5020190;28;20725;-90
2021/07/13 08:44:44;;;;;;;20.23;10.23;;;19.20;99.90;;;;;;4995804;28;20215;-91
2021/07/13 08:47:17;;;;;;;16.20;10.43;;;19.30;99.90;;;;;;5010219;28;20261;-90
2021/07/13 08:49:44;;;;;;;21.67;11.20;;;19.30;99.90;;;;;;5021497;28;21133;-90
2021/07/13 08:52:10;;;;;;;17.53;9.50;;;19.30;99.90;;;;;;5018841;28;20186;-90
2021/07/13 08:54:36;;;;;;;17.57;9.53;;;19.20;99.90;;;;;;5038409;28;20186;-91
2021/07/13 08:57:02;;;;;;;17.70;10.30;;;19.20;99.90;;;;;;4995894;28;20226;-89
2021/07/13 08:59:28;;;;;;;17.23;8.93;;;19.30;99.90;;;;;;5019978;28;20261;-89
2021/07/13 09:01:54;;;;;;;24.20;10.33;;;19.30;99.90;;;;;;5020518;28;20233;-90
2021/07/13 09:04:31;;;;;;;21.23;10.53;;;19.30;99.90;;;;;;5011453;28;21146;-90
2021/07/13 09:06:57;;;;;;;18.30;9.80;;;19.30;99.90;;;;;;5021439;28;20178;-87
2021/07/13 09:09:31;;;;;;;14.97;10.27;;;19.40;99.90;;;;;;5011782;28;20219;-87
2021/07/13 09:12:07;;;;;;;19.40;11.10;;;19.40;99.90;;;;;;5021933;28;20222;-90
2021/07/13 09:14:51;;;;;;;19.60;10.93;;;19.40;99.90;;;;;;5020634;28;20296;-86
2021/07/13 09:17:35;;;;;;;20.13;11.00;;;19.60;99.90;;;;;;5038046;28;20728;-90
2021/07/13 09:20:21;;;;;;;18.57;12.93;;;19.50;99.90;;;;;;5019220;28;20248;-91
2021/07/13 09:22:54;;;;;;;21.27;12.13;;;19.50;99.90;;;;;;5018426;28;20218;-91
2021/07/13 09:25:25;;;;;;;18.03;10.53;;;19.50;99.90;;;;;;5011397;28;20231;-90
2021/07/13 09:28:11;;;;;;;23.37;11.07;;;19.50;99.90;;;;;;5018021;28;20285;-90
2021/07/13 09:30:39;;;;;;;26.93;12.93;;;19.60;99.90;;;;;;4996897;28;20223;-92
2021/07/13 09:33:16;;;;;;;22.77;12.80;;;19.50;99.90;;;;;;5015685;28;20738;-91
2021/07/13 09:36:08;;;;;;;21.60;12.00;;;19.50;99.90;;;;;;5015282;28;21279;-91
2021/07/13 09:38:54;;;;;;;19.67;11.53;;;19.50;99.90;;;;;;5016740;28;20211;-88
2021/07/13 09:41:25;;;;;;;20.13;12.20;;;19.40;99.90;;;;;;5015412;28;20211;-92
2021/07/13 09:44:05;;;;;;;17.03;11.10;;;19.50;99.90;;;;;;5000343;28;20868;-90
2021/07/13 09:46:44;;;;;;;18.80;10.87;;;19.50;99.90;;;;;;5015765;28;20242;-91
2021/07/13 09:49:16;;;;;;;18.67;10.07;;;19.50;99.90;;;;;;5001999;28;20213;-89
2021/07/13 09:51:45;;;;;;;18.57;10.13;;;19.60;99.90;;;;;;5016053;28;20282;-91
2021/07/13 09:54:29;;;;;;;15.37;9.77;;;19.60;99.90;;;;;;5017397;28;20218;-91
2021/07/13 09:56:56;;;;;;;19.57;10.83;;;19.60;99.90;;;;;;5014273;28;20306;-90
2021/07/13 09:59:21;;;;;;;23.63;10.63;;;19.50;99.90;;;;;;5013954;28;20322;-90
2021/07/13 10:01:49;;;;;;;19.43;9.93;;;19.60;99.90;;;;;;4991233;28;20325;-87
2021/07/13 10:04:14;;;;;;;22.20;11.03;;;19.60;99.90;;;;;;5016284;28;20286;-90
2021/07/13 10:06:40;;;;;;;17.83;11.10;;;19.70;99.90;;;;;;5015152;28;20287;-87
2021/07/13 10:09:12;;;;;;;19.07;11.53;;;19.60;99.90;;;;;;5016690;28;20639;-88
2021/07/13 10:11:40;;;;;;;14.27;8.67;;;19.70;99.90;;;;;;5013930;28;20219;-91
2021/07/13 10:14:10;;;;;;;16.40;9.93;;;19.70;99.90;;;;;;5014576;28;20218;-89
2021/07/13 10:16:37;;;;;;;15.67;8.13;;;19.80;99.90;;;;;;5017620;28;20321;-90
2021/07/13 10:19:05;;;;;;;17.60;8.70;;;19.60;99.90;;;;;;5016760;28;20191;-87
2021/07/13 10:21:33;;;;;;;21.23;10.53;;;19.80;99.90;;;;;;5008685;28;20253;-88
2021/07/13 10:24:04;;;;;;;18.80;9.60;;;19.80;99.90;;;;;;5007902;28;20252;-87
2021/07/13 10:26:51;;;;;;;15.10;9.67;;;19.90;99.90;;;;;;5014035;28;20309;-92
2021/07/13 10:29:32;;;;;;;17.43;9.67;;;19.90;99.90;;;;;;5016567;28;20226;-90
2021/07/13 10:32:03;;;;;;;16.90;9.73;;;19.70;99.90;;;;;;5017296;28;20305;-89
2021/07/13 10:34:53;;;;;;;20.43;10.60;;;19.80;99.90;;;;;;5014173;28;20263;-88
2021/07/13 10:37:40;;;;;;;19.60;9.90;;;19.90;99.90;;;;;;5015707;28;20191;-91
2021/07/13 10:40:11;;;;;;;19.40;10.57;;;19.80;99.90;;;;;;5016269;28;20171;-91
2021/07/13 10:42:43;;;;;;;17.10;9.90;;;19.80;99.90;;;;;;5017434;28;20321;-91
2021/07/13 10:45:15;;;;;;;18.60;9.97;;;19.80;99.90;;;;;;5014514;28;20564;-92
2021/07/13 10:48:04;;;;;;;12.30;6.70;;;19.80;99.90;;;;;;5016087;28;20219;-89
2021/07/13 10:50:30;;;;;;;16.17;9.27;;;19.70;99.90;;;;;;5015585;28;20223;-88
2021/07/13 10:52:57;;;;;;;18.70;9.93;;;19.80;99.90;;;;;;5014602;28;20225;-88
2021/07/13 10:55:34;;;;;;;17.20;10.13;;;19.90;99.90;;;;;;5014438;28;20226;-90
2021/07/13 10:58:09;;;;;;;18.13;9.87;;;20.00;99.90;;;;;;5015717;28;20191;-89
2021/07/13 11:00:59;;;;;;;15.73;8.57;;;20.00;99.90;;;;;;5003708;28;20219;-91
2021/07/13 11:03:34;;;;;;;14.83;10.27;;;19.90;99.90;;;;;;4995955;28;20239;-91
2021/07/13 11:06:03;;;;;;;16.33;9.30;;;20.10;99.90;;;;;;5013016;28;20379;-90
2021/07/13 11:08:50;;;;;;;16.47;9.23;;;20.00;99.90;;;;;;5014121;28;20716;-89
2021/07/13 11:11:16;;;;;;;15.63;9.40;;;20.10;99.90;;;;;;5015806;28;20709;-90
2021/07/13 11:13:51;;;;;;;17.57;9.20;;;20.10;99.90;;;;;;5016411;28;20211;-90
2021/07/13 11:16:23;;;;;;;19.77;11.47;;;20.10;99.90;;;;;;5019636;28;20190;-93
2021/07/13 11:18:50;;;;;;;16.50;8.57;;;20.20;99.90;;;;;;5020693;28;20274;-91
2021/07/13 11:21:25;;;;;;;13.47;9.00;;;20.20;99.90;;;;;;5011431;28;20211;-89
2021/07/13 11:23:56;;;;;;;17.67;8.90;;;20.30;99.90;;;;;;5020268;28;20226;-90
2021/07/13 11:26:24;;;;;;;15.90;8.90;;;20.20;99.90;;;;;;5013888;28;20321;-90
2021/07/13 11:29:01;;;;;;;14.57;9.77;;;20.10;99.90;;;;;;5020046;28;20246;-91
2021/07/13 11:31:34;;;;;;;11.47;7.60;;;20.20;99.90;;;;;;5019537;28;20910;-89
2021/07/13 11:34:10;;;;;;;16.17;8.37;;;20.10;99.90;;;;;;5020086;28;20636;-88
2021/07/13 11:36:40;;;;;;;15.33;8.43;;;20.20;99.90;;;;;;5000277;28;20613;-89
2021/07/13 11:39:15;;;;;;;12.17;8.00;;;20.20;99.90;;;;;;5008016;28;20298;-89
2021/07/13 11:41:42;;;;;;;13.90;8.83;;;20.20;99.90;;;;;;5019324;28;20211;-90
2021/07/13 11:44:12;;;;;;;15.50;9.20;;;20.30;99.90;;;;;;4994430;28;20738;-89
2021/07/13 11:46:43;;;;;;;14.17;9.00;;;20.30;99.90;;;;;;5010361;28;20714;-88
2021/07/13 11:49:11;;;;;;;13.20;8.17;;;20.30;99.90;;;;;;5018354;28;20190;-89
2021/07/13 11:51:37;;;;;;;15.20;8.47;;;20.30;99.90;;;;;;5018823;28;20695;-90
2021/07/13 11:54:07;;;;;;;18.03;10.03;;;20.30;99.90;;;;;;5018683;28;20311;-91
2021/07/13 11:56:34;;;;;;;11.13;7.17;;;20.50;99.90;;;;;;5019105;28;20222;-91
2021/07/13 11:59:02;;;;;;;14.40;8.63;;;20.30;99.90;;;;;;5018625;28;20246;-91
2021/07/13 12:01:30;;;;;;;20.30;9.70;;;20.50;99.90;;;;;;5009660;28;20242;-90
2021/07/13 12:04:02;;;;;;;11.30;7.57;;;20.70;99.90;;;;;;5011566;28;20202;-90
2021/07/13 12:06:28;;;;;;;12.87;8.03;;;20.60;99.90;;;;;;5019259;28;20199;-90
2021/07/13 12:08:56;;;;;;;11.83;7.60;;;20.60;99.90;;;;;;5002862;28;20211;-91
2021/07/13 12:11:30;;;;;;;11.30;8.40;;;20.40;99.90;;;;;;5018179;28;20237;-89
2021/07/13 12:13:58;;;;;;;11.77;6.43;;;20.40;99.90;;;;;;5001663;28;20210;-89
2021/07/13 12:16:26;;;;;;;17.43;8.60;;;20.40;99.90;;;;;;5015519;28;20220;-89
2021/07/13 12:18:53;;;;;;;11.83;7.80;;;20.50;99.90;;;;;;5020668;28;20191;-90
2021/07/13 12:21:20;;;;;;;16.20;7.67;;;20.40;99.90;;;;;;4993345;28;20212;-93
2021/07/13 12:23:49;;;;;;;18.60;8.30;;;20.50;99.90;;;;;;5009473;28;20773;-89
2021/07/13 12:26:31;;;;;;;15.67;9.37;;;20.50;99.90;;;;;;5033019;28;20230;-90
2021/07/13 12:29:07;;;;;;;11.50;7.43;;;20.50;99.90;;;;;;5020246;28;20223;-90
2021/07/13 12:31:36;;;;;;;11.53;7.93;;;20.60;99.90;;;;;;5018329;28;20226;-90
2021/07/13 12:34:07;;;;;;;10.50;6.50;;;20.70;99.90;;;;;;5021817;28;20265;-89
2021/07/13 12:36:37;;;;;;;14.20;8.30;;;20.60;99.90;;;;;;5028417;28;20203;-89